sensor_id;sensor_type;location;lat;lon;timestamp;pressure;altitude;pressure_sealevel;temperature;humidity
78444;BME280;67739;52.986;8.894;2023-04-24T00:55:29;99989.44;;;10.07;88.50
78444;BME280;67739;52.986;8.894;2023-04-24T01:12:19;99978.69;;;9.77;87.50
78444;BME280;67739;52.986;8.894;2023-04-24T01:45:36;99973.84;;;9.83;86.80
78444;BME280;67739;52.986;8.894;2023-04-24T01:48:37;99956.22;;;9.79;86.21
78444;BME280;67739;52.986;8.894;2023-04-24T01:51:17;99961.38;;;9.82;85.79
78444;BME280;67739;52.986;8.894;2023-04-24T02:03:10;99964.78;;;9.70;83.79
78444;BME280;67739;52.986;8.894;2023-04-24T02:05:44;99960.56;;;9.66;83.63
78444;BME280;67739;52.986;8.894;2023-04-24T02:14:36;99959.44;;;9.70;83.63
78444;BME280;67739;52.986;8.894;2023-04-24T02:29:07;99946.78;;;9.88;82.22
78444;BME280;67739;52.986;8.894;2023-04-24T02:35:03;99951.78;;;9.94;82.05
78444;BME280;67739;52.986;8.894;2023-04-24T02:43:46;99960.50;;;9.98;81.34
78444;BME280;67739;52.986;8.894;2023-04-24T02:49:06;99955.72;;;10.03;81.09
78444;BME280;67739;52.986;8.894;2023-04-24T02:58:39;99951.25;;;10.03;79.86
78444;BME280;67739;52.986;8.894;2023-04-24T03:01:07;99949.34;;;10.05;79.80
78444;BME280;67739;52.986;8.894;2023-04-24T03:09:37;99954.78;;;10.04;79.45
78444;BME280;67739;52.986;8.894;2023-04-24T03:23:06;99957.19;;;10.08;78.42
78444;BME280;67739;52.986;8.894;2023-04-24T03:32:41;99944.31;;;9.99;78.35
78444;BME280;67739;52.986;8.894;2023-04-24T03:38:30;99943.38;;;10.00;77.58
78444;BME280;67739;52.986;8.894;2023-04-24T03:59:33;99958.75;;;9.97;77.49
78444;BME280;67739;52.986;8.894;2023-04-24T04:02:16;99955.34;;;9.95;77.00
78444;BME280;67739;52.986;8.894;2023-04-24T04:05:11;99952.53;;;9.96;77.46
78444;BME280;67739;52.986;8.894;2023-04-24T04:07:48;99968.44;;;9.99;77.59
78444;BME280;67739;52.986;8.894;2023-04-24T04:10:13;99967.50;;;10.00;77.50
78444;BME280;67739;52.986;8.894;2023-04-24T04:12:39;99969.31;;;10.00;77.36
78444;BME280;67739;52.986;8.894;2023-04-24T04:15:08;99967.56;;;9.99;77.61
78444;BME280;67739;52.986;8.894;2023-04-24T04:17:51;99972.84;;;10.00;77.92
78444;BME280;67739;52.986;8.894;2023-04-24T04:20:41;99970.16;;;10.00;77.77
78444;BME280;67739;52.986;8.894;2023-04-24T04:23:38;99966.91;;;9.95;77.72
78444;BME280;67739;52.986;8.894;2023-04-24T04:26:33;99964.31;;;9.93;77.97
78444;BME280;67739;52.986;8.894;2023-04-24T04:29:02;99958.97;;;9.93;78.10
78444;BME280;67739;52.986;8.894;2023-04-24T04:31:28;99953.53;;;9.95;77.76
78444;BME280;67739;52.986;8.894;2023-04-24T04:33:56;99966.06;;;9.95;77.83
78444;BME280;67739;52.986;8.894;2023-04-24T04:39:57;99966.44;;;10.03;77.86
78444;BME280;67739;52.986;8.894;2023-04-24T04:42:37;99969.91;;;10.05;77.75
78444;BME280;67739;52.986;8.894;2023-04-24T04:45:23;99963.59;;;10.06;77.89
78444;BME280;67739;52.986;8.894;2023-04-24T04:50:21;99954.09;;;10.00;77.64
78444;BME280;67739;52.986;8.894;2023-04-24T04:52:53;99968.28;;;10.02;77.71
78444;BME280;67739;52.986;8.894;2023-04-24T05:05:08;99972.69;;;10.03;76.64
78444;BME280;67739;52.986;8.894;2023-04-24T05:07:53;99969.03;;;10.04;77.29
78444;BME280;67739;52.986;8.894;2023-04-24T05:10:19;99975.28;;;10.05;76.69
78444;BME280;67739;52.986;8.894;2023-04-24T05:13:07;99967.31;;;10.03;76.87
78444;BME280;67739;52.986;8.894;2023-04-24T05:15:36;99970.78;;;10.05;76.66
78444;BME280;67739;52.986;8.894;2023-04-24T05:18:30;99971.25;;;10.12;76.61
78444;BME280;67739;52.986;8.894;2023-04-24T05:21:16;99961.88;;;10.05;76.83
78444;BME280;67739;52.986;8.894;2023-04-24T05:33:15;99979.28;;;10.12;76.58
78444;BME280;67739;52.986;8.894;2023-04-24T05:35:41;99981.72;;;10.16;77.44
78444;BME280;67739;52.986;8.894;2023-04-24T05:38:11;99980.56;;;10.36;79.78
78444;BME280;67739;52.986;8.894;2023-04-24T05:40:37;99982.63;;;10.61;80.73
78444;BME280;67739;52.986;8.894;2023-04-24T05:43:02;99985.50;;;10.86;79.20
78444;BME280;67739;52.986;8.894;2023-04-24T05:45:27;99979.56;;;11.10;76.73
78444;BME280;67739;52.986;8.894;2023-04-24T05:47:53;99980.13;;;11.29;76.51
78444;BME280;67739;52.986;8.894;2023-04-24T05:50:18;99976.91;;;11.51;76.09
78444;BME280;67739;52.986;8.894;2023-04-24T05:52:44;99977.22;;;11.73;75.08
78444;BME280;67739;52.986;8.894;2023-04-24T05:55:09;99985.66;;;11.95;74.24
78444;BME280;67739;52.986;8.894;2023-04-24T05:57:35;99989.75;;;12.14;73.11
78444;BME280;67739;52.986;8.894;2023-04-24T06:00:00;99984.78;;;12.34;72.52
78444;BME280;67739;52.986;8.894;2023-04-24T06:02:25;99988.91;;;12.53;71.06
78444;BME280;67739;52.986;8.894;2023-04-24T06:04:51;99995.16;;;12.66;70.79
78444;BME280;67739;52.986;8.894;2023-04-24T06:07:17;99993.97;;;12.83;70.88
78444;BME280;67739;52.986;8.894;2023-04-24T06:09:42;99990.63;;;13.04;69.20
78444;BME280;67739;52.986;8.894;2023-04-24T06:12:07;100003.66;;;13.10;68.42
78444;BME280;67739;52.986;8.894;2023-04-24T06:14:34;100002.03;;;13.08;65.40
78444;BME280;67739;52.986;8.894;2023-04-24T06:16:59;100003.88;;;12.95;66.70
78444;BME280;67739;52.986;8.894;2023-04-24T06:19:25;100011.19;;;12.80;67.06
78444;BME280;67739;52.986;8.894;2023-04-24T06:21:50;100013.44;;;12.61;67.11
78444;BME280;67739;52.986;8.894;2023-04-24T06:24:15;100023.50;;;12.45;68.18
78444;BME280;67739;52.986;8.894;2023-04-24T06:26:41;100019.91;;;12.19;67.71
78444;BME280;67739;52.986;8.894;2023-04-24T06:29:07;100028.69;;;12.08;68.79
78444;BME280;67739;52.986;8.894;2023-04-24T06:31:32;100019.72;;;11.95;69.30
78444;BME280;67739;52.986;8.894;2023-04-24T06:34:02;100015.16;;;11.83;69.90
78444;BME280;67739;52.986;8.894;2023-04-24T06:36:28;100021.94;;;11.74;70.29
78444;BME280;67739;52.986;8.894;2023-04-24T06:38:53;100028.38;;;11.72;70.88
78444;BME280;67739;52.986;8.894;2023-04-24T06:41:19;100031.16;;;11.70;71.84
78444;BME280;67739;52.986;8.894;2023-04-24T06:43:44;100028.59;;;11.68;72.17
78444;BME280;67739;52.986;8.894;2023-04-24T06:46:10;100034.25;;;11.64;71.29
78444;BME280;67739;52.986;8.894;2023-04-24T06:48:35;100024.75;;;11.58;71.60
78444;BME280;67739;52.986;8.894;2023-04-24T06:51:01;100033.00;;;11.55;72.27
78444;BME280;67739;52.986;8.894;2023-04-24T06:53:26;100026.69;;;11.56;73.10
78444;BME280;67739;52.986;8.894;2023-04-24T06:55:52;100025.81;;;11.56;73.02
78444;BME280;67739;52.986;8.894;2023-04-24T06:58:17;100030.44;;;11.54;73.10
78444;BME280;67739;52.986;8.894;2023-04-24T07:00:43;100030.44;;;11.54;73.26
78444;BME280;67739;52.986;8.894;2023-04-24T07:03:08;100026.69;;;11.56;73.78
78444;BME280;67739;52.986;8.894;2023-04-24T07:05:34;100027.44;;;11.58;73.15
78444;BME280;67739;52.986;8.894;2023-04-24T07:08:00;100029.94;;;11.61;73.23
78444;BME280;67739;52.986;8.894;2023-04-24T07:10:26;100033.97;;;11.68;73.37
78444;BME280;67739;52.986;8.894;2023-04-24T07:12:53;100019.09;;;11.77;74.07
78444;BME280;67739;52.986;8.894;2023-04-24T07:15:19;100021.16;;;11.86;73.71
78444;BME280;67739;52.986;8.894;2023-04-24T07:17:44;100032.50;;;11.91;72.53
78444;BME280;67739;52.986;8.894;2023-04-24T07:20:10;100031.25;;;11.97;73.14
78444;BME280;67739;52.986;8.894;2023-04-24T07:22:37;100026.31;;;12.03;73.19
78444;BME280;67739;52.986;8.894;2023-04-24T07:25:04;100025.34;;;12.04;71.40
78444;BME280;67739;52.986;8.894;2023-04-24T07:27:30;100048.47;;;12.07;72.03
78444;BME280;67739;52.986;8.894;2023-04-24T07:29:55;100044.31;;;12.16;72.94
78444;BME280;67739;52.986;8.894;2023-04-24T07:32:20;100039.19;;;12.25;72.79
78444;BME280;67739;52.986;8.894;2023-04-24T07:34:46;100047.59;;;12.33;72.82
78444;BME280;67739;52.986;8.894;2023-04-24T07:37:11;100045.47;;;12.38;71.25
78444;BME280;67739;52.986;8.894;2023-04-24T07:39:36;100046.34;;;12.39;71.77
78444;BME280;67739;52.986;8.894;2023-04-24T07:42:02;100042.13;;;12.35;70.17
78444;BME280;67739;52.986;8.894;2023-04-24T07:44:27;100050.28;;;12.33;70.90
78444;BME280;67739;52.986;8.894;2023-04-24T07:46:53;100051.25;;;12.32;70.94
78444;BME280;67739;52.986;8.894;2023-04-24T07:49:18;100049.13;;;12.37;71.66
78444;BME280;67739;52.986;8.894;2023-04-24T07:51:44;100053.88;;;12.47;72.25
78444;BME280;67739;52.986;8.894;2023-04-24T07:54:10;100064.22;;;12.53;70.58
78444;BME280;67739;52.986;8.894;2023-04-24T07:56:37;100055.19;;;12.54;70.93
78444;BME280;67739;52.986;8.894;2023-04-24T07:59:07;100062.31;;;12.55;70.45
78444;BME280;67739;52.986;8.894;2023-04-24T08:01:32;100065.19;;;12.52;70.44
78444;BME280;67739;52.986;8.894;2023-04-24T08:03:57;100067.41;;;12.45;70.11
78444;BME280;67739;52.986;8.894;2023-04-24T08:06:23;100067.19;;;12.35;69.23
78444;BME280;67739;52.986;8.894;2023-04-24T08:08:48;100075.66;;;12.29;69.97
78444;BME280;67739;52.986;8.894;2023-04-24T08:11:14;100072.81;;;12.18;69.72
78444;BME280;67739;52.986;8.894;2023-04-24T08:13:39;100077.53;;;12.15;69.99
78444;BME280;67739;52.986;8.894;2023-04-24T08:16:05;100066.00;;;12.13;70.82
78444;BME280;67739;52.986;8.894;2023-04-24T08:18:30;100085.50;;;12.16;71.60
78444;BME280;67739;52.986;8.894;2023-04-24T08:20:56;100087.22;;;12.17;70.89
78444;BME280;67739;52.986;8.894;2023-04-24T08:23:26;100089.25;;;12.14;69.74
78444;BME280;67739;52.986;8.894;2023-04-24T08:25:51;100091.28;;;12.10;70.24
78444;BME280;67739;52.986;8.894;2023-04-24T08:28:17;100082.56;;;12.07;70.03
78444;BME280;67739;52.986;8.894;2023-04-24T08:30:45;100079.88;;;12.07;71.18
78444;BME280;67739;52.986;8.894;2023-04-24T08:33:12;100084.19;;;12.09;71.04
78444;BME280;67739;52.986;8.894;2023-04-24T08:35:37;100085.81;;;12.12;71.25
78444;BME280;67739;52.986;8.894;2023-04-24T08:38:03;100089.25;;;12.14;70.72
78444;BME280;67739;52.986;8.894;2023-04-24T08:40:29;100091.84;;;12.15;70.76
78444;BME280;67739;52.986;8.894;2023-04-24T08:42:59;100091.66;;;12.18;71.27
78444;BME280;67739;52.986;8.894;2023-04-24T08:45:24;100092.59;;;12.17;71.09
78444;BME280;67739;52.986;8.894;2023-04-24T08:47:52;100090.78;;;12.18;70.66
78444;BME280;67739;52.986;8.894;2023-04-24T08:50:18;100092.59;;;12.17;69.83
78444;BME280;67739;52.986;8.894;2023-04-24T08:52:44;100095.09;;;12.20;70.91
78444;BME280;67739;52.986;8.894;2023-04-24T08:55:09;100093.41;;;12.32;71.73
78444;BME280;67739;52.986;8.894;2023-04-24T08:57:35;100090.22;;;12.39;70.31
78444;BME280;67739;52.986;8.894;2023-04-24T09:00:01;100091.09;;;12.40;69.84
78444;BME280;67739;52.986;8.894;2023-04-24T09:02:27;100085.81;;;12.38;69.38
78444;BME280;67739;52.986;8.894;2023-04-24T09:04:53;100089.38;;;12.39;69.44
78444;BME280;67739;52.986;8.894;2023-04-24T09:07:19;100091.19;;;12.38;69.74
78444;BME280;67739;52.986;8.894;2023-04-24T09:09:45;100084.38;;;12.33;68.50
78444;BME280;67739;52.986;8.894;2023-04-24T09:12:11;100095.53;;;12.27;68.98
78444;BME280;67739;52.986;8.894;2023-04-24T09:14:36;100109.41;;;12.21;68.90
78444;BME280;67739;52.986;8.894;2023-04-24T09:17:05;100099.03;;;12.15;68.77
78444;BME280;67739;52.986;8.894;2023-04-24T09:19:31;100099.47;;;12.09;68.83
78444;BME280;67739;52.986;8.894;2023-04-24T09:21:56;100090.38;;;11.97;67.84
78444;BME280;67739;52.986;8.894;2023-04-24T09:24:22;100101.59;;;11.89;69.17
78444;BME280;67739;52.986;8.894;2023-04-24T09:26:49;100101.16;;;11.83;70.13
78444;BME280;67739;52.986;8.894;2023-04-24T09:29:20;100098.47;;;11.83;70.46
78444;BME280;67739;52.986;8.894;2023-04-24T09:31:45;100104.81;;;11.82;70.30
78444;BME280;67739;52.986;8.894;2023-04-24T09:34:11;100090.41;;;11.83;69.81
78444;BME280;67739;52.986;8.894;2023-04-24T09:36:42;100099.22;;;11.85;70.37
78444;BME280;67739;52.986;8.894;2023-04-24T09:39:12;100101.50;;;11.91;70.32
78444;BME280;67739;52.986;8.894;2023-04-24T09:41:53;100109.94;;;11.99;69.98
78444;BME280;67739;52.986;8.894;2023-04-24T09:44:21;100102.72;;;11.99;69.26
78444;BME280;67739;52.986;8.894;2023-04-24T09:46:54;100111.47;;;12.03;69.11
78444;BME280;67739;52.986;8.894;2023-04-24T09:49:25;100103.59;;;12.00;68.48
78444;BME280;67739;52.986;8.894;2023-04-24T09:51:51;100103.41;;;12.03;68.91
78444;BME280;67739;52.986;8.894;2023-04-24T09:54:18;100094.47;;;12.02;69.25
78444;BME280;67739;52.986;8.894;2023-04-24T09:56:49;100098.59;;;12.08;69.43
78444;BME280;67739;52.986;8.894;2023-04-24T09:59:16;100107.22;;;12.13;68.92
78444;BME280;67739;52.986;8.894;2023-04-24T10:01:42;100110.16;;;12.23;69.51
78444;BME280;67739;52.986;8.894;2023-04-24T10:04:21;100102.25;;;12.34;69.78
78444;BME280;67739;52.986;8.894;2023-04-24T10:06:48;100109.97;;;12.53;69.08
78444;BME280;67739;52.986;8.894;2023-04-24T10:09:15;100097.75;;;12.74;69.28
78444;BME280;67739;52.986;8.894;2023-04-24T10:11:51;100104.16;;;12.98;67.07
78444;BME280;67739;52.986;8.894;2023-04-24T10:14:20;100106.19;;;13.07;65.85
78444;BME280;67739;52.986;8.894;2023-04-24T10:16:49;100100.50;;;13.12;65.46
78444;BME280;67739;52.986;8.894;2023-04-24T10:19:17;100104.38;;;13.08;64.69
78444;BME280;67739;52.986;8.894;2023-04-24T10:21:46;100114.38;;;12.93;64.06
78444;BME280;67739;52.986;8.894;2023-04-24T10:24:18;100122.06;;;12.72;64.06
78444;BME280;67739;52.986;8.894;2023-04-24T10:26:47;100120.38;;;12.45;65.29
78444;BME280;67739;52.986;8.894;2023-04-24T10:29:17;100120.25;;;12.19;66.58
78444;BME280;67739;52.986;8.894;2023-04-24T10:31:43;100125.00;;;12.01;67.76
78444;BME280;67739;52.986;8.894;2023-04-24T10:34:10;100118.13;;;11.83;68.21
78444;BME280;67739;52.986;8.894;2023-04-24T10:36:39;100121.22;;;11.77;68.33
78444;BME280;67739;52.986;8.894;2023-04-24T10:39:10;100117.66;;;11.77;69.46
78444;BME280;67739;52.986;8.894;2023-04-24T10:41:39;100118.88;;;11.85;69.92
78444;BME280;67739;52.986;8.894;2023-04-24T10:44:06;100127.00;;;11.98;70.23
78444;BME280;67739;52.986;8.894;2023-04-24T10:46:32;100115.50;;;12.10;69.41
78444;BME280;67739;52.986;8.894;2023-04-24T10:48:58;100123.72;;;12.21;68.94
78444;BME280;67739;52.986;8.894;2023-04-24T10:51:25;100125.31;;;12.38;70.38
78444;BME280;67739;52.986;8.894;2023-04-24T10:54:28;100122.91;;;12.60;70.36
78444;BME280;67739;52.986;8.894;2023-04-24T10:59:45;100126.38;;;12.75;68.74
78444;BME280;67739;52.986;8.894;2023-04-24T11:02:10;100125.22;;;12.79;69.04
78444;BME280;67739;52.986;8.894;2023-04-24T11:04:39;100127.06;;;12.91;69.67
78444;BME280;67739;52.986;8.894;2023-04-24T11:07:04;100122.66;;;13.03;68.95
78444;BME280;67739;52.986;8.894;2023-04-24T11:09:31;100128.28;;;13.13;67.30
78444;BME280;67739;52.986;8.894;2023-04-24T11:12:07;100114.94;;;13.11;66.81
78444;BME280;67739;52.986;8.894;2023-04-24T11:17:35;100110.34;;;13.38;67.17
78444;BME280;67739;52.986;8.894;2023-04-24T11:20:11;100126.69;;;13.61;68.81
78444;BME280;67739;52.986;8.894;2023-04-24T11:22:41;100117.09;;;13.82;66.73
78444;BME280;67739;52.986;8.894;2023-04-24T11:25:07;100121.59;;;13.94;63.18
78444;BME280;67739;52.986;8.894;2023-04-24T11:27:41;100123.75;;;13.89;63.85
78444;BME280;67739;52.986;8.894;2023-04-24T11:30:07;100120.53;;;13.84;64.05
78444;BME280;67739;52.986;8.894;2023-04-24T11:37:26;100125.50;;;13.65;64.49
78444;BME280;67739;52.986;8.894;2023-04-24T11:39:54;100120.66;;;13.57;63.82
78444;BME280;67739;52.986;8.894;2023-04-24T11:42:21;100110.84;;;13.56;64.46
78444;BME280;67739;52.986;8.894;2023-04-24T11:44:47;100114.28;;;13.58;63.41
78444;BME280;67739;52.986;8.894;2023-04-24T11:47:14;100120.13;;;13.52;63.93
78444;BME280;67739;52.986;8.894;2023-04-24T11:49:39;100123.72;;;13.40;62.23
78444;BME280;67739;52.986;8.894;2023-04-24T11:52:05;100124.22;;;13.20;63.16
78444;BME280;67739;52.986;8.894;2023-04-24T11:54:30;100127.09;;;13.04;63.46
78444;BME280;67739;52.986;8.894;2023-04-24T11:56:56;100127.47;;;12.85;64.14
78444;BME280;67739;52.986;8.894;2023-04-24T11:59:22;100135.31;;;12.75;65.58
78444;BME280;67739;52.986;8.894;2023-04-24T12:01:48;100131.00;;;12.73;67.16
78444;BME280;67739;52.986;8.894;2023-04-24T12:04:17;100138.78;;;12.78;67.35
78444;BME280;67739;52.986;8.894;2023-04-24T12:07:04;100149.75;;;12.87;67.70
78444;BME280;67739;52.986;8.894;2023-04-24T12:09:46;100144.09;;;12.92;66.09
78444;BME280;67739;52.986;8.894;2023-04-24T12:12:16;100149.00;;;12.85;65.62
78444;BME280;67739;52.986;8.894;2023-04-24T12:14:51;100135.22;;;12.77;65.92
78444;BME280;67739;52.986;8.894;2023-04-24T12:17:17;100137.16;;;12.75;65.82
78444;BME280;67739;52.986;8.894;2023-04-24T12:19:48;100143.91;;;12.68;65.95
78444;BME280;67739;52.986;8.894;2023-04-24T12:22:14;100128.38;;;12.59;66.53
78444;BME280;67739;52.986;8.894;2023-04-24T12:25:02;100132.75;;;12.47;66.84
78444;BME280;67739;52.986;8.894;2023-04-24T12:27:30;100145.97;;;12.37;67.39
78444;BME280;67739;52.986;8.894;2023-04-24T12:29:57;100146.34;;;12.31;68.39
78444;BME280;67739;52.986;8.894;2023-04-24T12:32:23;100149.47;;;12.25;68.69
78444;BME280;67739;52.986;8.894;2023-04-24T12:34:50;100154.63;;;12.14;69.23
78444;BME280;67739;52.986;8.894;2023-04-24T12:37:16;100156.69;;;12.11;70.10
78444;BME280;67739;52.986;8.894;2023-04-24T12:40:20;100162.34;;;12.06;70.61
78444;BME280;67739;52.986;8.894;2023-04-24T12:42:48;100171.56;;;12.02;71.03
78444;BME280;67739;52.986;8.894;2023-04-24T12:45:14;100167.25;;;11.99;72.16
78444;BME280;67739;52.986;8.894;2023-04-24T12:47:41;100169.06;;;11.99;73.43
78444;BME280;67739;52.986;8.894;2023-04-24T12:50:09;100174.34;;;12.00;73.90
78444;BME280;67739;52.986;8.894;2023-04-24T12:52:35;100178.47;;;12.06;75.07
78444;BME280;67739;52.986;8.894;2023-04-24T12:55:00;100187.22;;;12.10;75.50
78444;BME280;67739;52.986;8.894;2023-04-24T12:57:27;100183.25;;;12.15;75.93
78444;BME280;67739;52.986;8.894;2023-04-24T12:59:54;100186.72;;;12.17;76.28
78444;BME280;67739;52.986;8.894;2023-04-24T13:02:21;100185.09;;;12.15;76.60
78444;BME280;67739;52.986;8.894;2023-04-24T13:04:47;100209.19;;;12.02;76.56
78444;BME280;67739;52.986;8.894;2023-04-24T13:07:13;100217.25;;;11.74;75.34
78444;BME280;67739;52.986;8.894;2023-04-24T13:09:40;100224.97;;;11.36;76.22
78444;BME280;67739;52.986;8.894;2023-04-24T13:12:05;100225.31;;;10.99;77.11
78444;BME280;67739;52.986;8.894;2023-04-24T13:14:32;100258.56;;;10.67;78.41
78444;BME280;67739;52.986;8.894;2023-04-24T13:16:57;100242.00;;;10.43;79.11
78444;BME280;67739;52.986;8.894;2023-04-24T13:19:24;100262.66;;;10.25;79.58
78444;BME280;67739;52.986;8.894;2023-04-24T13:21:50;100258.97;;;10.11;80.32
78444;BME280;67739;52.986;8.894;2023-04-24T13:24:16;100266.59;;;10.03;81.26
78444;BME280;67739;52.986;8.894;2023-04-24T13:26:42;100268.72;;;9.96;81.69
78444;BME280;67739;52.986;8.894;2023-04-24T13:29:08;100284.34;;;9.88;81.88
78444;BME280;67739;52.986;8.894;2023-04-24T13:31:34;100286.88;;;9.74;81.38
78444;BME280;67739;52.986;8.894;2023-04-24T13:33:59;100299.19;;;9.61;81.95
78444;BME280;67739;52.986;8.894;2023-04-24T13:36:24;100306.75;;;9.52;82.06
78444;BME280;67739;52.986;8.894;2023-04-24T13:38:50;100314.31;;;9.44;83.23
78444;BME280;67739;52.986;8.894;2023-04-24T13:41:15;100310.25;;;9.37;83.19
78444;BME280;67739;52.986;8.894;2023-04-24T13:43:41;100327.53;;;9.30;82.76
78444;BME280;67739;52.986;8.894;2023-04-24T13:46:07;100342.09;;;9.25;83.58
78444;BME280;67739;52.986;8.894;2023-04-24T13:48:33;100342.41;;;9.18;83.36
78444;BME280;67739;52.986;8.894;2023-04-24T13:50:58;100357.88;;;9.12;84.02
78444;BME280;67739;52.986;8.894;2023-04-24T13:53:24;100349.06;;;9.10;83.90
78444;BME280;67739;52.986;8.894;2023-04-24T13:55:49;100357.25;;;9.07;84.18
78444;BME280;67739;52.986;8.894;2023-04-24T13:58:14;100366.28;;;9.04;83.98
78444;BME280;67739;52.986;8.894;2023-04-24T14:00:40;100374.47;;;9.01;84.01
78444;BME280;67739;52.986;8.894;2023-04-24T14:03:05;100371.13;;;8.96;84.20
78444;BME280;67739;52.986;8.894;2023-04-24T14:05:31;100378.28;;;8.96;84.26
78444;BME280;67739;52.986;8.894;2023-04-24T14:07:56;100386.56;;;8.91;84.85
78444;BME280;67739;52.986;8.894;2023-04-24T14:10:22;100391.03;;;8.91;84.83
78444;BME280;67739;52.986;8.894;2023-04-24T14:12:47;100385.09;;;8.84;84.90
78444;BME280;67739;52.986;8.894;2023-04-24T14:15:13;100396.91;;;8.80;84.69
78444;BME280;67739;52.986;8.894;2023-04-24T14:17:39;100399.72;;;8.77;85.36
78444;BME280;67739;52.986;8.894;2023-04-24T14:20:05;100402.59;;;8.72;85.05
78444;BME280;67739;52.986;8.894;2023-04-24T14:22:30;100404.59;;;8.67;85.03
78444;BME280;67739;52.986;8.894;2023-04-24T14:24:56;100405.91;;;8.59;84.42
78444;BME280;67739;52.986;8.894;2023-04-24T14:27:21;100413.34;;;8.52;84.55
78444;BME280;67739;52.986;8.894;2023-04-24T14:29:46;100414.31;;;8.51;85.03
78444;BME280;67739;52.986;8.894;2023-04-24T14:32:12;100419.47;;;8.54;85.25
78444;BME280;67739;52.986;8.894;2023-04-24T14:34:40;100420.28;;;8.56;85.60
78444;BME280;67739;52.986;8.894;2023-04-24T14:37:05;100428.31;;;8.56;85.21
78444;BME280;67739;52.986;8.894;2023-04-24T14:39:30;100430.03;;;8.57;85.50
78444;BME280;67739;52.986;8.894;2023-04-24T14:41:56;100430.84;;;8.59;85.65
78444;BME280;67739;52.986;8.894;2023-04-24T14:44:21;100436.13;;;8.61;85.70
78444;BME280;67739;52.986;8.894;2023-04-24T14:46:48;100439.66;;;8.61;85.90
78444;BME280;67739;52.986;8.894;2023-04-24T14:49:14;100437.13;;;8.58;85.33
78444;BME280;67739;52.986;8.894;2023-04-24T14:51:39;100448.75;;;8.57;85.40
78444;BME280;67739;52.986;8.894;2023-04-24T14:54:06;100448.75;;;8.57;85.58
78444;BME280;67739;52.986;8.894;2023-04-24T14:56:31;100457.72;;;8.56;85.42
78444;BME280;67739;52.986;8.894;2023-04-24T14:58:57;100460.53;;;8.53;85.64
78444;BME280;67739;52.986;8.894;2023-04-24T15:01:22;100453.53;;;8.50;85.27
78444;BME280;67739;52.986;8.894;2023-04-24T15:03:49;100456.13;;;8.52;85.47
78444;BME280;67739;52.986;8.894;2023-04-24T15:06:15;100456.13;;;8.52;85.70
78444;BME280;67739;52.986;8.894;2023-04-24T15:08:40;100461.41;;;8.54;85.63
78444;BME280;67739;52.986;8.894;2023-04-24T15:11:05;100462.06;;;8.59;86.13
78444;BME280;67739;52.986;8.894;2023-04-24T15:13:31;100463.75;;;8.61;85.97
78444;BME280;67739;52.986;8.894;2023-04-24T15:15:57;100463.59;;;8.64;86.11
78444;BME280;67739;52.986;8.894;2023-04-24T15:18:22;100471.41;;;8.69;86.41
78444;BME280;67739;52.986;8.894;2023-04-24T15:20:47;100463.31;;;8.70;86.16
78444;BME280;67739;52.986;8.894;2023-04-24T15:23:13;100476.53;;;8.73;86.26
78444;BME280;67739;52.986;8.894;2023-04-24T15:25:38;100477.28;;;8.77;86.28
78444;BME280;67739;52.986;8.894;2023-04-24T15:28:04;100473.66;;;8.78;86.36
78444;BME280;67739;52.986;8.894;2023-04-24T15:30:32;100476.28;;;8.79;86.34
78444;BME280;67739;52.986;8.894;2023-04-24T15:32:59;100482.25;;;8.84;86.41
78444;BME280;67739;52.986;8.894;2023-04-24T15:35:25;100488.34;;;8.88;86.97
78444;BME280;67739;52.986;8.894;2023-04-24T15:37:50;100491.59;;;8.95;87.08
78444;BME280;67739;52.986;8.894;2023-04-24T15:40:15;100485.16;;;8.99;87.25
78444;BME280;67739;52.986;8.894;2023-04-24T15:42:42;100491.19;;;9.04;86.93
78444;BME280;67739;52.986;8.894;2023-04-24T15:45:08;100489.25;;;9.07;86.80
78444;BME280;67739;52.986;8.894;2023-04-24T15:47:34;100492.69;;;9.09;86.29
78444;BME280;67739;52.986;8.894;2023-04-24T15:52:49;100486.78;;;9.03;86.59
78444;BME280;67739;52.986;8.894;2023-04-24T15:55:22;100501.59;;;9.10;86.39
78444;BME280;67739;52.986;8.894;2023-04-24T15:57:55;100496.16;;;9.11;86.58
78444;BME280;67739;52.986;8.894;2023-04-24T16:00:21;100490.88;;;9.10;86.00
78444;BME280;67739;52.986;8.894;2023-04-24T16:02:48;100504.94;;;9.15;86.08
78444;BME280;67739;52.986;8.894;2023-04-24T16:05:16;100497.03;;;9.12;85.92
78444;BME280;67739;52.986;8.894;2023-04-24T16:07:41;100496.22;;;9.10;86.19
78444;BME280;67739;52.986;8.894;2023-04-24T16:10:09;100498.91;;;9.10;85.76
78444;BME280;67739;52.986;8.894;2023-04-24T16:12:38;100502.63;;;9.07;84.91
78444;BME280;67739;52.986;8.894;2023-04-24T16:15:03;100503.75;;;9.02;85.32
78444;BME280;67739;52.986;8.894;2023-04-24T16:17:32;100503.97;;;8.97;85.54
78444;BME280;67739;52.986;8.894;2023-04-24T16:19:58;100508.31;;;9.00;85.73
78444;BME280;67739;52.986;8.894;2023-04-24T16:22:23;100514.53;;;9.00;85.31
78444;BME280;67739;52.986;8.894;2023-04-24T16:24:49;100510.19;;;8.98;85.18
78444;BME280;67739;52.986;8.894;2023-04-24T16:27:14;100523.28;;;9.04;85.56
78444;BME280;67739;52.986;8.894;2023-04-24T16:29:40;100515.59;;;8.96;85.26
78444;BME280;67739;52.986;8.894;2023-04-24T16:35:24;100528.28;;;8.93;85.56
78444;BME280;67739;52.986;8.894;2023-04-24T16:37:49;100513.28;;;8.89;85.22
78444;BME280;67739;52.986;8.894;2023-04-24T16:40:18;100533.75;;;8.90;85.12
78444;BME280;67739;52.986;8.894;2023-04-24T16:42:54;100535.63;;;8.88;85.08
78444;BME280;67739;52.986;8.894;2023-04-24T16:45:36;100526.94;;;8.82;85.04
78444;BME280;67739;52.986;8.894;2023-04-24T16:48:14;100529.84;;;8.78;85.24
78444;BME280;67739;52.986;8.894;2023-04-24T16:53:20;100534.44;;;8.74;85.14
78444;BME280;67739;52.986;8.894;2023-04-24T16:55:49;100539.13;;;8.69;84.85
78444;BME280;67739;52.986;8.894;2023-04-24T16:58:41;100557.59;;;8.75;85.13